Time,TemperatureF,DewpointF,PressureIn,WindDirection,WindDirectionDegrees,WindSpeedMPH,WindSpeedGustMPH,Humidity,HourlyPrecipIn,Conditions,Clouds,dailyrainin,SoftwareType,DateUTC
2013-07-30 00:13:00,61.0,55.0,-100.00,North,5,0.0,3.0,80,0.00,,,-99.99,,2013-07-30 04:13:00,
2013-07-30 00:23:00,60.0,55.0,-100.00,NNE,15,0.0,2.0,82,0.00,,,-99.99,,2013-07-30 04:23:00,
2013-07-30 00:33:00,61.0,56.0,-100.00,NE,45,0.0,1.0,82,0.00,,,-99.99,,2013-07-30 04:33:00,
2013-07-30 00:53:00,60.0,55.0,-100.00,NW,325,0.0,3.0,84,0.00,,,-99.99,,2013-07-30 04:53:00,
2013-07-30 01:23:00,56.0,53.0,-100.00,South,185,0.0,3.0,90,0.00,,,-99.99,,2013-07-30 05:23:00,
2013-07-30 01:33:00,56.0,54.0,-100.00,West,280,0.0,0.0,91,0.00,,,-99.99,,2013-07-30 05:33:00,
2013-07-30 01:45:00,56.0,54.0,-100.00,West,280,0.0,0.0,91,0.00,,,-99.99,,2013-07-30 05:45:00,
2013-07-30 01:52:00,57.0,54.0,-100.00,NE,55,0.0,1.0,89,0.00,,,-99.99,,2013-07-30 05:52:00,
2013-07-30 02:13:00,56.0,53.0,-100.00,West,260,0.0,2.0,91,0.00,,,-99.99,,2013-07-30 06:13:00,
2013-07-30 02:23:00,56.0,53.0,-100.00,West,260,0.0,2.0,91,0.00,,,-99.99,,2013-07-30 06:23:00,
2013-07-30 02:43:00,55.0,53.0,-100.00,West,260,1.0,3.0,93,0.00,,,-99.99,,2013-07-30 06:43:00,
2013-07-30 03:23:00,55.0,53.0,-100.00,West,260,1.0,3.0,93,0.00,,,-99.99,,2013-07-30 07:23:00,
2013-07-30 03:43:00,55.0,53.0,-100.00,WNW,285,0.0,2.0,93,0.00,,,-99.99,,2013-07-30 07:43:00,
2013-07-30 04:23:00,54.0,53.0,-100.00,West,275,0.0,3.0,95,0.00,,,-99.99,,2013-07-30 08:23:00,
2013-07-30 04:53:00,55.0,54.0,-100.00,NNW,335,0.0,2.0,95,0.00,,,-99.99,,2013-07-30 08:53:00,
2013-07-30 05:03:00,55.0,54.0,-100.00,North,5,0.0,2.0,95,0.00,,,-99.99,,2013-07-30 09:03:00,
2013-07-30 05:23:00,55.0,53.0,-100.00,NNE,25,1.0,3.0,96,0.00,,,-99.99,,2013-07-30 09:23:00,
2013-07-30 05:33:00,55.0,55.0,-100.00,NE,35,0.0,1.0,96,0.00,,,-99.99,,2013-07-30 09:33:00,
2013-07-30 05:43:00,55.0,54.0,-100.00,ENE,60,0.0,1.0,96,0.00,,,-99.99,,2013-07-30 09:43:00,
2013-07-30 06:03:00,55.0,54.0,-100.00,NE,55,0.0,2.0,95,0.00,,,-99.99,,2013-07-30 10:03:00,
2013-07-30 06:12:00,53.0,52.0,-100.00,West,265,0.0,2.0,95,0.00,,,-99.99,,2013-07-30 10:12:00,
2013-07-30 06:23:00,53.0,51.0,-100.00,NNE,25,0.0,1.0,95,0.00,,,-99.99,,2013-07-30 10:23:00,
2013-07-30 06:32:00,54.0,53.0,-100.00,NNE,25,0.0,6.0,96,0.00,,,-99.99,,2013-07-30 10:32:00,
2013-07-30 06:44:00,55.0,54.0,-100.00,NE,45,0.0,1.0,96,0.00,,,-99.99,,2013-07-30 10:44:00,
2013-07-30 06:52:00,54.0,53.0,-100.00,NE,45,1.0,2.0,96,0.00,,,-99.99,,2013-07-30 10:52:00,
2013-07-30 07:02:00,54.0,53.0,-100.00,NNE,25,1.0,4.0,96,0.00,,,-99.99,,2013-07-30 11:02:00,
2013-07-30 07:11:00,55.0,53.0,-100.00,NE,35,0.0,3.0,96,0.00,,,-99.99,,2013-07-30 11:11:00,
2013-07-30 07:22:00,55.0,54.0,-100.00,SW,235,0.0,4.0,96,0.00,,,-99.99,,2013-07-30 11:22:00,
2013-07-30 07:33:00,55.0,54.0,-100.00,WSW,240,0.0,1.0,95,0.00,,,-99.99,,2013-07-30 11:33:00,
2013-07-30 07:43:00,56.0,55.0,-100.00,NE,50,1.0,3.0,95,0.00,,,-99.99,,2013-07-30 11:43:00,
2013-07-30 08:12:00,59.0,56.0,-100.00,East,90,0.0,2.0,91,0.00,,,-99.99,,2013-07-30 12:12:00,
2013-07-30 08:42:00,62.0,58.0,-100.00,East,100,0.0,2.0,86,0.00,,,-99.99,,2013-07-30 12:42:00,
2013-07-30 09:12:00,64.0,59.0,-100.00,ESE,105,1.0,2.0,83,0.00,,,-99.99,,2013-07-30 13:12:00,
2013-07-30 09:22:00,64.0,59.0,-100.00,SSE,155,0.0,2.0,83,0.00,,,-99.99,,2013-07-30 13:22:00,
2013-07-30 09:33:00,65.0,59.0,-100.00,SSE,150,1.0,3.0,81,0.00,,,-99.99,,2013-07-30 13:33:00,
2013-07-30 09:43:00,66.0,60.0,-100.00,South,180,1.0,3.0,80,0.00,,,-99.99,,2013-07-30 13:43:00,
2013-07-30 10:12:00,67.0,60.0,-100.00,SSW,195,2.0,7.0,77,0.00,,,-99.99,,2013-07-30 14:12:00,
2013-07-30 10:22:00,68.0,59.0,-100.00,South,190,1.0,3.0,72,0.00,,,-99.99,,2013-07-30 14:22:00,
2013-07-30 10:33:00,69.0,60.0,-100.00,SSE,150,1.0,4.0,71,0.00,,,-99.99,,2013-07-30 14:33:00,
2013-07-30 11:02:00,71.0,59.0,-100.00,WSW,240,2.0,6.0,64,0.00,,,-99.99,,2013-07-30 15:02:00,
2013-07-30 11:43:00,74.0,59.0,-100.00,WSW,255,1.0,7.0,58,0.00,,,-99.99,,2013-07-30 15:43:00,
2013-07-30 12:12:00,74.0,60.0,-100.00,SW,220,3.0,8.0,60,0.00,,,-99.99,,2013-07-30 16:12:00,
2013-07-30 12:23:00,74.0,57.0,-100.00,SW,235,5.0,7.0,54,0.00,,,-99.99,,2013-07-30 16:23:00,
2013-07-30 12:33:00,74.0,60.0,-100.00,South,190,2.0,6.0,60,0.00,,,-99.99,,2013-07-30 16:33:00,
2013-07-30 12:44:00,74.0,56.0,-100.00,SSW,205,2.0,6.0,52,0.00,,,-99.99,,2013-07-30 16:44:00,
2013-07-30 14:12:00,78.0,57.0,-100.00,South,170,2.0,6.0,48,0.00,,,-99.99,,2013-07-30 18:12:00,
2013-07-30 14:23:00,77.0,58.0,-100.00,South,175,4.0,10.0,51,0.00,,,-99.99,,2013-07-30 18:23:00,
2013-07-30 14:32:00,78.0,58.0,-100.00,South,185,6.0,9.0,50,0.00,,,-99.99,,2013-07-30 18:32:00,
2013-07-30 15:12:00,77.0,58.0,-100.00,South,180,3.0,8.0,51,0.00,,,-99.99,,2013-07-30 19:12:00,
2013-07-30 15:22:00,77.0,58.0,-100.00,SSW,200,6.0,9.0,52,0.00,,,-99.99,,2013-07-30 19:22:00,
2013-07-30 15:44:00,79.0,58.0,-100.00,West,270,3.0,7.0,49,0.00,,,-99.99,,2013-07-30 19:44:00,
2013-07-30 16:22:00,78.0,60.0,-100.00,South,170,5.0,9.0,54,0.00,,,-99.99,,2013-07-30 20:22:00,
2013-07-30 17:02:00,77.0,56.0,-100.00,SW,235,4.0,7.0,47,0.00,,,-99.99,,2013-07-30 21:02:00,
2013-07-30 18:22:00,76.0,58.0,-100.00,South,175,6.0,10.0,53,0.00,,,-99.99,,2013-07-30 22:22:00,
2013-07-30 18:52:00,75.0,57.0,-100.00,SSW,205,4.0,6.0,52,0.00,,,-99.99,,2013-07-30 22:52:00,
2013-07-30 19:02:00,75.0,56.0,-100.00,SSW,205,4.0,6.0,51,0.00,,,-99.99,,2013-07-30 23:02:00,
2013-07-30 19:13:00,74.0,57.0,-100.00,SW,215,3.0,6.0,54,0.00,,,-99.99,,2013-07-30 23:13:00,
2013-07-30 19:22:00,74.0,59.0,-100.00,WSW,245,2.0,6.0,57,0.00,,,-99.99,,2013-07-30 23:22:00,
2013-07-30 19:32:00,74.0,59.0,-100.00,WSW,240,2.0,6.0,60,0.00,,,-99.99,,2013-07-30 23:32:00,
2013-07-30 19:42:00,74.0,60.0,-100.00,SW,230,2.0,4.0,61,0.00,,,-99.99,,2013-07-30 23:42:00,
2013-07-30 19:53:00,74.0,60.0,-100.00,SW,220,3.0,4.0,61,0.00,,,-99.99,,2013-07-30 23:53:00,
2013-07-30 20:02:00,73.0,60.0,-100.00,SW,225,2.0,4.0,63,0.00,,,-99.99,,2013-07-31 00:02:00,
2013-07-30 20:12:00,73.0,61.0,-100.00,SW,230,3.0,4.0,65,0.00,,,-99.99,,2013-07-31 00:12:00,
2013-07-30 20:32:00,73.0,61.0,-100.00,WSW,245,2.0,4.0,67,0.00,,,-99.99,,2013-07-31 00:32:00,
2013-07-30 20:43:00,72.0,62.0,-100.00,WSW,240,2.0,5.0,69,0.00,,,-99.99,,2013-07-31 00:43:00,
2013-07-30 20:53:00,72.0,62.0,-100.00,SW,235,1.0,4.0,70,0.00,,,-99.99,,2013-07-31 00:53:00,
2013-07-30 21:02:00,72.0,62.0,-100.00,West,270,1.0,4.0,69,0.00,,,-99.99,,2013-07-31 01:02:00,
2013-07-30 22:02:00,71.0,61.0,-100.00,WSW,245,0.0,3.0,69,0.00,,,-99.99,,2013-07-31 02:02:00,
2013-07-30 22:43:00,69.0,64.0,-100.00,SSE,150,1.0,2.0,82,0.00,,,-99.99,,2013-07-31 02:43:00,
2013-07-30 23:12:00,68.0,64.0,-100.00,SSE,165,1.0,1.0,87,0.00,,,-99.99,,2013-07-31 03:12:00,
2013-07-30 23:22:00,68.0,64.0,-100.00,South,190,1.0,1.0,85,0.00,,,-99.99,,2013-07-31 03:22:00,
2013-07-30 23:32:00,68.0,64.0,-100.00,South,175,2.0,3.0,85,0.00,,,-99.99,,2013-07-31 03:32:00,
2013-07-30 23:42:00,68.0,64.0,-100.00,South,180,2.0,3.0,86,0.00,,,-99.99,,2013-07-31 03:42:00,
2013-07-30 23:52:00,68.0,64.0,-100.00,South,185,1.0,2.0,87,0.00,,,-99.99,,2013-07-31 03:52:00,